sensor_id;sensor_type;location;lat;lon;timestamp;P1;P2;P0
47081;PMS5003;33066;49.296;14.470;2024-02-14T00:00:17;28;25;
47081;PMS5003;33066;49.296;14.470;2024-02-14T00:02:43;42;31;
47081;PMS5003;33066;49.296;14.470;2024-02-14T00:05:07;22;21;
47081;PMS5003;33066;49.296;14.470;2024-02-14T00:07:33;45;38;
47081;PMS5003;33066;49.296;14.470;2024-02-14T00:09:58;36;32;
47081;PMS5003;33066;49.296;14.470;2024-02-14T00:12:24;44;34;
47081;PMS5003;33066;49.296;14.470;2024-02-14T00:14:49;35;28;
47081;PMS5003;33066;49.296;14.470;2024-02-14T00:17:15;32;30;
47081;PMS5003;33066;49.296;14.470;2024-02-14T00:19:40;44;35;
47081;PMS5003;33066;49.296;14.470;2024-02-14T00:22:06;49;39;
47081;PMS5003;33066;49.296;14.470;2024-02-14T00:24:31;53;45;
47081;PMS5003;33066;49.296;14.470;2024-02-14T00:26:56;57;43;
47081;PMS5003;33066;49.296;14.470;2024-02-14T00:29:21;25;24;
47081;PMS5003;33066;49.296;14.470;2024-02-14T00:31:47;39;32;
47081;PMS5003;33066;49.296;14.470;2024-02-14T00:34:12;32;25;
47081;PMS5003;33066;49.296;14.470;2024-02-14T00:36:38;39;32;
47081;PMS5003;33066;49.296;14.470;2024-02-14T00:39:03;37;29;
47081;PMS5003;33066;49.296;14.470;2024-02-14T00:41:28;30;24;
47081;PMS5003;33066;49.296;14.470;2024-02-14T00:43:53;23;18;
47081;PMS5003;33066;49.296;14.470;2024-02-14T00:46:18;30;28;
47081;PMS5003;33066;49.296;14.470;2024-02-14T00:48:44;29;21;
47081;PMS5003;33066;49.296;14.470;2024-02-14T00:51:11;34;28;
47081;PMS5003;33066;49.296;14.470;2024-02-14T00:53:34;26;20;
47081;PMS5003;33066;49.296;14.470;2024-02-14T00:55:59;30;24;
47081;PMS5003;33066;49.296;14.470;2024-02-14T00:58:25;17;17;
47081;PMS5003;33066;49.296;14.470;2024-02-14T01:00:50;22;19;
47081;PMS5003;33066;49.296;14.470;2024-02-14T01:03:17;20;18;
47081;PMS5003;33066;49.296;14.470;2024-02-14T01:05:42;18;16;
47081;PMS5003;33066;49.296;14.470;2024-02-14T01:08:08;24;22;
47081;PMS5003;33066;49.296;14.470;2024-02-14T01:10:33;27;17;
47081;PMS5003;33066;49.296;14.470;2024-02-14T01:12:59;24;21;
47081;PMS5003;33066;49.296;14.470;2024-02-14T01:15:24;20;16;
47081;PMS5003;33066;49.296;14.470;2024-02-14T01:17:50;23;21;
47081;PMS5003;33066;49.296;14.470;2024-02-14T01:20:16;40;35;
47081;PMS5003;33066;49.296;14.470;2024-02-14T01:22:41;34;24;
47081;PMS5003;33066;49.296;14.470;2024-02-14T01:25:07;30;28;
47081;PMS5003;33066;49.296;14.470;2024-02-14T01:27:34;28;20;
47081;PMS5003;33066;49.296;14.470;2024-02-14T01:29:58;27;23;
47081;PMS5003;33066;49.296;14.470;2024-02-14T01:32:24;31;25;
47081;PMS5003;33066;49.296;14.470;2024-02-14T01:34:49;31;21;
47081;PMS5003;33066;49.296;14.470;2024-02-14T01:37:14;34;26;
47081;PMS5003;33066;49.296;14.470;2024-02-14T01:39:40;27;25;
47081;PMS5003;33066;49.296;14.470;2024-02-14T01:42:06;19;19;
47081;PMS5003;33066;49.296;14.470;2024-02-14T01:44:31;23;21;
47081;PMS5003;33066;49.296;14.470;2024-02-14T01:46:57;25;25;
47081;PMS5003;33066;49.296;14.470;2024-02-14T01:49:27;22;21;
47081;PMS5003;33066;49.296;14.470;2024-02-14T01:51:48;34;31;
47081;PMS5003;33066;49.296;14.470;2024-02-14T01:54:13;25;20;
47081;PMS5003;33066;49.296;14.470;2024-02-14T01:56:41;26;23;
47081;PMS5003;33066;49.296;14.470;2024-02-14T01:59:04;25;23;
47081;PMS5003;33066;49.296;14.470;2024-02-14T02:01:31;33;32;
47081;PMS5003;33066;49.296;14.470;2024-02-14T02:03:54;26;22;
47081;PMS5003;33066;49.296;14.470;2024-02-14T02:06:21;34;32;
47081;PMS5003;33066;49.296;14.470;2024-02-14T02:08:45;23;19;
47081;PMS5003;33066;49.296;14.470;2024-02-14T02:11:10;21;21;
47081;PMS5003;33066;49.296;14.470;2024-02-14T02:13:36;32;27;
47081;PMS5003;33066;49.296;14.470;2024-02-14T02:16:01;38;24;
47081;PMS5003;33066;49.296;14.470;2024-02-14T02:18:27;24;21;
47081;PMS5003;33066;49.296;14.470;2024-02-14T02:20:52;32;27;
47081;PMS5003;33066;49.296;14.470;2024-02-14T02:23:17;37;33;
47081;PMS5003;33066;49.296;14.470;2024-02-14T02:25:43;20;20;
47081;PMS5003;33066;49.296;14.470;2024-02-14T02:28:08;20;17;
47081;PMS5003;33066;49.296;14.470;2024-02-14T02:30:34;32;23;
47081;PMS5003;33066;49.296;14.470;2024-02-14T02:32:59;27;19;
47081;PMS5003;33066;49.296;14.470;2024-02-14T02:35:24;27;19;
47081;PMS5003;33066;49.296;14.470;2024-02-14T02:37:49;37;26;
47081;PMS5003;33066;49.296;14.470;2024-02-14T02:40:15;38;27;
47081;PMS5003;33066;49.296;14.470;2024-02-14T02:42:40;31;31;
47081;PMS5003;33066;49.296;14.470;2024-02-14T02:45:06;28;22;
47081;PMS5003;33066;49.296;14.470;2024-02-14T02:47:31;35;31;
47081;PMS5003;33066;49.296;14.470;2024-02-14T02:49:56;33;26;
47081;PMS5003;33066;49.296;14.470;2024-02-14T02:52:22;27;25;
47081;PMS5003;33066;49.296;14.470;2024-02-14T02:54:47;22;19;
47081;PMS5003;33066;49.296;14.470;2024-02-14T02:57:13;21;16;
47081;PMS5003;33066;49.296;14.470;2024-02-14T02:59:38;21;16;
47081;PMS5003;33066;49.296;14.470;2024-02-14T03:02:04;23;21;
47081;PMS5003;33066;49.296;14.470;2024-02-14T03:04:29;23;17;
47081;PMS5003;33066;49.296;14.470;2024-02-14T03:06:55;28;19;
47081;PMS5003;33066;49.296;14.470;2024-02-14T03:09:21;15;14;
47081;PMS5003;33066;49.296;14.470;2024-02-14T03:11:46;22;19;
47081;PMS5003;33066;49.296;14.470;2024-02-14T03:14:11;20;15;
47081;PMS5003;33066;49.296;14.470;2024-02-14T03:16:37;26;24;
47081;PMS5003;33066;49.296;14.470;2024-02-14T03:19:02;28;26;
47081;PMS5003;33066;49.296;14.470;2024-02-14T03:21:28;22;19;
47081;PMS5003;33066;49.296;14.470;2024-02-14T03:23:53;25;19;
47081;PMS5003;33066;49.296;14.470;2024-02-14T03:26:19;19;16;
47081;PMS5003;33066;49.296;14.470;2024-02-14T03:28:44;19;16;
47081;PMS5003;33066;49.296;14.470;2024-02-14T03:31:10;19;17;
47081;PMS5003;33066;49.296;14.470;2024-02-14T03:33:35;28;24;
47081;PMS5003;33066;49.296;14.470;2024-02-14T03:36:01;27;19;
47081;PMS5003;33066;49.296;14.470;2024-02-14T03:38:27;19;16;
47081;PMS5003;33066;49.296;14.470;2024-02-14T03:40:52;22;21;
47081;PMS5003;33066;49.296;14.470;2024-02-14T03:43:18;17;16;
47081;PMS5003;33066;49.296;14.470;2024-02-14T03:45:44;22;17;
47081;PMS5003;33066;49.296;14.470;2024-02-14T03:48:10;21;19;
47081;PMS5003;33066;49.296;14.470;2024-02-14T03:50:35;18;15;
47081;PMS5003;33066;49.296;14.470;2024-02-14T03:53:00;20;17;
47081;PMS5003;33066;49.296;14.470;2024-02-14T03:55:26;13;10;
47081;PMS5003;33066;49.296;14.470;2024-02-14T03:57:51;21;20;
47081;PMS5003;33066;49.296;14.470;2024-02-14T04:00:17;25;21;
47081;PMS5003;33066;49.296;14.470;2024-02-14T04:02:42;21;21;
47081;PMS5003;33066;49.296;14.470;2024-02-14T04:05:07;17;13;
47081;PMS5003;33066;49.296;14.470;2024-02-14T04:07:32;22;20;
47081;PMS5003;33066;49.296;14.470;2024-02-14T04:09:57;13;13;
47081;PMS5003;33066;49.296;14.470;2024-02-14T04:13:00;17;16;
47081;PMS5003;33066;49.296;14.470;2024-02-14T04:15:26;22;20;
47081;PMS5003;33066;49.296;14.470;2024-02-14T04:17:51;14;14;
47081;PMS5003;33066;49.296;14.470;2024-02-14T04:20:16;11;11;
47081;PMS5003;33066;49.296;14.470;2024-02-14T04:22:42;26;20;
47081;PMS5003;33066;49.296;14.470;2024-02-14T04:25:07;16;14;
47081;PMS5003;33066;49.296;14.470;2024-02-14T04:27:32;10;9;
47081;PMS5003;33066;49.296;14.470;2024-02-14T04:29:57;15;12;
47081;PMS5003;33066;49.296;14.470;2024-02-14T04:32:22;18;15;
47081;PMS5003;33066;49.296;14.470;2024-02-14T04:34:48;18;17;
47081;PMS5003;33066;49.296;14.470;2024-02-14T04:37:13;29;26;
47081;PMS5003;33066;49.296;14.470;2024-02-14T04:39:39;27;20;
47081;PMS5003;33066;49.296;14.470;2024-02-14T04:42:04;20;16;
47081;PMS5003;33066;49.296;14.470;2024-02-14T04:44:30;22;22;
47081;PMS5003;33066;49.296;14.470;2024-02-14T04:46:55;26;21;
47081;PMS5003;33066;49.296;14.470;2024-02-14T04:49:21;24;19;
47081;PMS5003;33066;49.296;14.470;2024-02-14T04:51:46;26;21;
47081;PMS5003;33066;49.296;14.470;2024-02-14T04:54:12;16;14;
47081;PMS5003;33066;49.296;14.470;2024-02-14T04:56:38;22;15;
47081;PMS5003;33066;49.296;14.470;2024-02-14T04:59:03;10;10;
47081;PMS5003;33066;49.296;14.470;2024-02-14T05:01:28;22;15;
47081;PMS5003;33066;49.296;14.470;2024-02-14T05:03:54;15;14;
47081;PMS5003;33066;49.296;14.470;2024-02-14T05:06:19;14;14;
47081;PMS5003;33066;49.296;14.470;2024-02-14T05:08:45;17;13;
47081;PMS5003;33066;49.296;14.470;2024-02-14T05:11:10;14;10;
47081;PMS5003;33066;49.296;14.470;2024-02-14T05:13:35;13;13;
47081;PMS5003;33066;49.296;14.470;2024-02-14T05:16:02;14;13;
47081;PMS5003;33066;49.296;14.470;2024-02-14T05:18:26;35;29;
47081;PMS5003;33066;49.296;14.470;2024-02-14T05:20:51;17;17;
47081;PMS5003;33066;49.296;14.470;2024-02-14T05:23:16;17;17;
47081;PMS5003;33066;49.296;14.470;2024-02-14T05:25:42;20;20;
47081;PMS5003;33066;49.296;14.470;2024-02-14T05:28:07;14;14;
47081;PMS5003;33066;49.296;14.470;2024-02-14T05:30:33;25;22;
47081;PMS5003;33066;49.296;14.470;2024-02-14T05:32:58;22;22;
47081;PMS5003;33066;49.296;14.470;2024-02-14T05:35:24;15;11;
47081;PMS5003;33066;49.296;14.470;2024-02-14T05:37:50;13;11;
47081;PMS5003;33066;49.296;14.470;2024-02-14T05:40:15;19;14;
47081;PMS5003;33066;49.296;14.470;2024-02-14T05:42:40;27;24;
47081;PMS5003;33066;49.296;14.470;2024-02-14T05:45:06;26;20;
47081;PMS5003;33066;49.296;14.470;2024-02-14T05:47:31;17;16;
47081;PMS5003;33066;49.296;14.470;2024-02-14T05:49:57;16;13;
47081;PMS5003;33066;49.296;14.470;2024-02-14T05:52:22;14;13;
47081;PMS5003;33066;49.296;14.470;2024-02-14T05:54:48;24;20;
47081;PMS5003;33066;49.296;14.470;2024-02-14T05:57:13;13;13;
47081;PMS5003;33066;49.296;14.470;2024-02-14T05:59:38;20;13;
47081;PMS5003;33066;49.296;14.470;2024-02-14T06:02:03;20;17;
47081;PMS5003;33066;49.296;14.470;2024-02-14T06:04:28;20;16;
47081;PMS5003;33066;49.296;14.470;2024-02-14T06:06:54;20;17;
47081;PMS5003;33066;49.296;14.470;2024-02-14T06:09:19;23;20;
47081;PMS5003;33066;49.296;14.470;2024-02-14T06:11:45;17;13;
47081;PMS5003;33066;49.296;14.470;2024-02-14T06:14:10;22;17;
47081;PMS5003;33066;49.296;14.470;2024-02-14T06:16:35;22;16;
47081;PMS5003;33066;49.296;14.470;2024-02-14T06:19:01;23;23;
47081;PMS5003;33066;49.296;14.470;2024-02-14T06:21:26;23;19;
47081;PMS5003;33066;49.296;14.470;2024-02-14T06:23:52;27;26;
47081;PMS5003;33066;49.296;14.470;2024-02-14T06:26:17;29;28;
47081;PMS5003;33066;49.296;14.470;2024-02-14T06:28:43;27;25;
47081;PMS5003;33066;49.296;14.470;2024-02-14T06:31:08;34;23;
47081;PMS5003;33066;49.296;14.470;2024-02-14T06:33:34;34;34;
47081;PMS5003;33066;49.296;14.470;2024-02-14T06:35:59;38;32;
47081;PMS5003;33066;49.296;14.470;2024-02-14T06:38:25;32;23;
47081;PMS5003;33066;49.296;14.470;2024-02-14T06:40:50;30;26;
47081;PMS5003;33066;49.296;14.470;2024-02-14T06:43:16;27;27;
47081;PMS5003;33066;49.296;14.470;2024-02-14T06:45:41;37;35;
47081;PMS5003;33066;49.296;14.470;2024-02-14T06:48:07;29;24;
47081;PMS5003;33066;49.296;14.470;2024-02-14T06:50:33;24;22;
47081;PMS5003;33066;49.296;14.470;2024-02-14T06:52:58;26;21;
47081;PMS5003;33066;49.296;14.470;2024-02-14T06:55:23;36;30;
47081;PMS5003;33066;49.296;14.470;2024-02-14T06:57:49;35;31;
47081;PMS5003;33066;49.296;14.470;2024-02-14T07:00:15;41;37;
47081;PMS5003;33066;49.296;14.470;2024-02-14T07:02:40;28;22;
47081;PMS5003;33066;49.296;14.470;2024-02-14T07:05:05;35;28;
47081;PMS5003;33066;49.296;14.470;2024-02-14T07:07:31;43;38;
47081;PMS5003;33066;49.296;14.470;2024-02-14T07:09:56;43;38;
47081;PMS5003;33066;49.296;14.470;2024-02-14T07:12:22;41;36;
47081;PMS5003;33066;49.296;14.470;2024-02-14T07:14:47;31;23;
47081;PMS5003;33066;49.296;14.470;2024-02-14T07:17:12;28;25;
47081;PMS5003;33066;49.296;14.470;2024-02-14T07:19:37;35;31;
47081;PMS5003;33066;49.296;14.470;2024-02-14T07:22:02;32;29;
47081;PMS5003;33066;49.296;14.470;2024-02-14T07:24:28;36;29;
47081;PMS5003;33066;49.296;14.470;2024-02-14T07:26:53;24;19;
47081;PMS5003;33066;49.296;14.470;2024-02-14T07:29:19;27;21;
47081;PMS5003;33066;49.296;14.470;2024-02-14T07:31:44;27;23;
47081;PMS5003;33066;49.296;14.470;2024-02-14T07:34:10;20;18;
47081;PMS5003;33066;49.296;14.470;2024-02-14T07:36:35;22;18;
47081;PMS5003;33066;49.296;14.470;2024-02-14T07:39:01;32;31;
47081;PMS5003;33066;49.296;14.470;2024-02-14T07:41:26;23;21;
47081;PMS5003;33066;49.296;14.470;2024-02-14T07:43:51;28;27;
47081;PMS5003;33066;49.296;14.470;2024-02-14T07:46:17;45;31;
47081;PMS5003;33066;49.296;14.470;2024-02-14T07:48:42;25;23;
47081;PMS5003;33066;49.296;14.470;2024-02-14T07:51:07;46;36;
47081;PMS5003;33066;49.296;14.470;2024-02-14T07:53:33;33;27;
47081;PMS5003;33066;49.296;14.470;2024-02-14T07:55:59;36;30;
47081;PMS5003;33066;49.296;14.470;2024-02-14T07:58:25;34;23;
47081;PMS5003;33066;49.296;14.470;2024-02-14T08:00:50;29;24;
47081;PMS5003;33066;49.296;14.470;2024-02-14T08:03:16;26;18;
47081;PMS5003;33066;49.296;14.470;2024-02-14T08:05:41;32;23;
47081;PMS5003;33066;49.296;14.470;2024-02-14T08:08:06;32;26;
47081;PMS5003;33066;49.296;14.470;2024-02-14T08:10:32;33;24;
47081;PMS5003;33066;49.296;14.470;2024-02-14T08:12:57;31;28;
47081;PMS5003;33066;49.296;14.470;2024-02-14T08:15:23;32;28;
47081;PMS5003;33066;49.296;14.470;2024-02-14T08:17:48;29;26;
47081;PMS5003;33066;49.296;14.470;2024-02-14T08:20:13;29;25;
47081;PMS5003;33066;49.296;14.470;2024-02-14T08:22:38;39;30;
47081;PMS5003;33066;49.296;14.470;2024-02-14T08:25:04;27;20;
47081;PMS5003;33066;49.296;14.470;2024-02-14T08:27:30;45;31;
47081;PMS5003;33066;49.296;14.470;2024-02-14T08:29:55;33;31;
47081;PMS5003;33066;49.296;14.470;2024-02-14T08:32:20;30;25;
47081;PMS5003;33066;49.296;14.470;2024-02-14T08:34:45;25;22;
47081;PMS5003;33066;49.296;14.470;2024-02-14T08:37:10;41;31;
47081;PMS5003;33066;49.296;14.470;2024-02-14T08:39:35;39;31;
47081;PMS5003;33066;49.296;14.470;2024-02-14T08:42:01;36;33;
47081;PMS5003;33066;49.296;14.470;2024-02-14T08:44:27;31;28;
47081;PMS5003;33066;49.296;14.470;2024-02-14T08:46:52;35;32;
47081;PMS5003;33066;49.296;14.470;2024-02-14T08:49:18;41;30;
47081;PMS5003;33066;49.296;14.470;2024-02-14T08:51:44;29;24;
47081;PMS5003;33066;49.296;14.470;2024-02-14T08:54:09;28;25;
47081;PMS5003;33066;49.296;14.470;2024-02-14T08:56:34;23;19;
47081;PMS5003;33066;49.296;14.470;2024-02-14T08:59:00;28;24;
47081;PMS5003;33066;49.296;14.470;2024-02-14T09:01:25;31;27;
47081;PMS5003;33066;49.296;14.470;2024-02-14T09:03:51;26;19;
47081;PMS5003;33066;49.296;14.470;2024-02-14T09:06:17;30;25;
47081;PMS5003;33066;49.296;14.470;2024-02-14T09:08:43;36;31;
47081;PMS5003;33066;49.296;14.470;2024-02-14T09:11:07;42;29;
47081;PMS5003;33066;49.296;14.470;2024-02-14T09:13:33;46;38;
47081;PMS5003;33066;49.296;14.470;2024-02-14T09:15:58;35;34;
47081;PMS5003;33066;49.296;14.470;2024-02-14T09:18:23;43;36;
47081;PMS5003;33066;49.296;14.470;2024-02-14T09:20:48;42;31;
47081;PMS5003;33066;49.296;14.470;2024-02-14T09:23:14;27;26;
47081;PMS5003;33066;49.296;14.470;2024-02-14T09:25:39;46;44;
47081;PMS5003;33066;49.296;14.470;2024-02-14T09:28:05;35;31;
47081;PMS5003;33066;49.296;14.470;2024-02-14T09:30:30;29;28;
47081;PMS5003;33066;49.296;14.470;2024-02-14T09:32:56;29;26;
47081;PMS5003;33066;49.296;14.470;2024-02-14T09:35:21;27;19;
47081;PMS5003;33066;49.296;14.470;2024-02-14T09:37:46;17;15;
47081;PMS5003;33066;49.296;14.470;2024-02-14T09:40:12;19;13;
47081;PMS5003;33066;49.296;14.470;2024-02-14T09:42:38;10;9;
47081;PMS5003;33066;49.296;14.470;2024-02-14T09:45:03;12;11;
47081;PMS5003;33066;49.296;14.470;2024-02-14T09:47:28;27;24;
47081;PMS5003;33066;49.296;14.470;2024-02-14T09:49:53;31;28;
47081;PMS5003;33066;49.296;14.470;2024-02-14T09:52:19;34;30;
47081;PMS5003;33066;49.296;14.470;2024-02-14T09:54:44;21;17;
47081;PMS5003;33066;49.296;14.470;2024-02-14T09:57:09;21;14;
47081;PMS5003;33066;49.296;14.470;2024-02-14T09:59:35;38;34;
47081;PMS5003;33066;49.296;14.470;2024-02-14T10:02:01;13;11;
47081;PMS5003;33066;49.296;14.470;2024-02-14T10:04:26;15;12;
47081;PMS5003;33066;49.296;14.470;2024-02-14T10:06:52;16;13;
47081;PMS5003;33066;49.296;14.470;2024-02-14T10:09:18;11;10;
47081;PMS5003;33066;49.296;14.470;2024-02-14T10:11:42;12;11;
47081;PMS5003;33066;49.296;14.470;2024-02-14T10:14:08;15;10;
47081;PMS5003;33066;49.296;14.470;2024-02-14T10:16:34;12;11;
47081;PMS5003;33066;49.296;14.470;2024-02-14T10:19:00;17;15;
47081;PMS5003;33066;49.296;14.470;2024-02-14T10:21:25;29;24;
47081;PMS5003;33066;49.296;14.470;2024-02-14T10:23:51;13;11;
47081;PMS5003;33066;49.296;14.470;2024-02-14T10:26:16;14;13;
47081;PMS5003;33066;49.296;14.470;2024-02-14T10:28:41;17;15;
47081;PMS5003;33066;49.296;14.470;2024-02-14T10:31:07;21;18;
47081;PMS5003;33066;49.296;14.470;2024-02-14T10:33:32;15;11;
47081;PMS5003;33066;49.296;14.470;2024-02-14T10:35:58;15;14;
47081;PMS5003;33066;49.296;14.470;2024-02-14T10:38:24;11;10;
47081;PMS5003;33066;49.296;14.470;2024-02-14T10:40:49;11;11;
47081;PMS5003;33066;49.296;14.470;2024-02-14T10:43:15;18;14;
47081;PMS5003;33066;49.296;14.470;2024-02-14T10:45:40;27;20;
47081;PMS5003;33066;49.296;14.470;2024-02-14T10:48:06;13;13;
47081;PMS5003;33066;49.296;14.470;2024-02-14T10:50:32;9;9;
47081;PMS5003;33066;49.296;14.470;2024-02-14T10:52:56;9;9;
47081;PMS5003;33066;49.296;14.470;2024-02-14T10:55:22;16;13;
47081;PMS5003;33066;49.296;14.470;2024-02-14T10:57:47;7;7;
47081;PMS5003;33066;49.296;14.470;2024-02-14T11:00:12;13;12;
47081;PMS5003;33066;49.296;14.470;2024-02-14T11:02:37;17;15;
47081;PMS5003;33066;49.296;14.470;2024-02-14T11:05:02;12;12;
47081;PMS5003;33066;49.296;14.470;2024-02-14T11:07:27;9;8;
47081;PMS5003;33066;49.296;14.470;2024-02-14T11:10:04;16;11;
47081;PMS5003;33066;49.296;14.470;2024-02-14T11:12:22;11;10;
47081;PMS5003;33066;49.296;14.470;2024-02-14T11:14:44;17;9;
47081;PMS5003;33066;49.296;14.470;2024-02-14T11:17:10;9;9;
47081;PMS5003;33066;49.296;14.470;2024-02-14T11:19:35;10;10;
47081;PMS5003;33066;49.296;14.470;2024-02-14T11:22:09;39;35;
47081;PMS5003;33066;49.296;14.470;2024-02-14T11:24:26;15;15;
47081;PMS5003;33066;49.296;14.470;2024-02-14T11:26:51;14;14;
47081;PMS5003;33066;49.296;14.470;2024-02-14T11:29:17;25;22;
47081;PMS5003;33066;49.296;14.470;2024-02-14T11:31:42;23;21;
47081;PMS5003;33066;49.296;14.470;2024-02-14T11:34:07;42;36;
47081;PMS5003;33066;49.296;14.470;2024-02-14T11:36:32;22;19;
47081;PMS5003;33066;49.296;14.470;2024-02-14T11:38:57;23;20;
47081;PMS5003;33066;49.296;14.470;2024-02-14T11:41:23;24;20;
47081;PMS5003;33066;49.296;14.470;2024-02-14T11:43:50;10;9;
47081;PMS5003;33066;49.296;14.470;2024-02-14T11:46:14;12;12;
47081;PMS5003;33066;49.296;14.470;2024-02-14T11:48:41;10;9;
47081;PMS5003;33066;49.296;14.470;2024-02-14T11:51:05;10;9;
47081;PMS5003;33066;49.296;14.470;2024-02-14T11:53:31;9;9;
47081;PMS5003;33066;49.296;14.470;2024-02-14T11:55:57;11;10;
47081;PMS5003;33066;49.296;14.470;2024-02-14T11:58:22;16;15;
47081;PMS5003;33066;49.296;14.470;2024-02-14T12:00:48;16;14;
47081;PMS5003;33066;49.296;14.470;2024-02-14T12:03:14;17;14;
47081;PMS5003;33066;49.296;14.470;2024-02-14T12:05:38;6;6;
47081;PMS5003;33066;49.296;14.470;2024-02-14T12:08:04;18;16;
47081;PMS5003;33066;49.296;14.470;2024-02-14T12:10:31;10;10;
47081;PMS5003;33066;49.296;14.470;2024-02-14T12:12:55;10;8;
47081;PMS5003;33066;49.296;14.470;2024-02-14T12:15:20;26;26;
47081;PMS5003;33066;49.296;14.470;2024-02-14T12:17:47;8;8;
47081;PMS5003;33066;49.296;14.470;2024-02-14T12:20:12;11;7;
47081;PMS5003;33066;49.296;14.470;2024-02-14T12:22:37;7;6;
47081;PMS5003;33066;49.296;14.470;2024-02-14T12:25:03;6;5;
47081;PMS5003;33066;49.296;14.470;2024-02-14T12:27:31;6;6;
47081;PMS5003;33066;49.296;14.470;2024-02-14T12:29:52;9;6;
47081;PMS5003;33066;49.296;14.470;2024-02-14T12:32:17;6;4;
47081;PMS5003;33066;49.296;14.470;2024-02-14T12:34:43;7;5;
47081;PMS5003;33066;49.296;14.470;2024-02-14T12:37:08;5;5;
47081;PMS5003;33066;49.296;14.470;2024-02-14T12:39:34;6;6;
47081;PMS5003;33066;49.296;14.470;2024-02-14T12:41:58;8;5;
47081;PMS5003;33066;49.296;14.470;2024-02-14T12:44:23;9;4;
47081;PMS5003;33066;49.296;14.470;2024-02-14T12:46:49;5;5;
47081;PMS5003;33066;49.296;14.470;2024-02-14T12:49:14;4;4;
47081;PMS5003;33066;49.296;14.470;2024-02-14T12:51:39;5;5;
47081;PMS5003;33066;49.296;14.470;2024-02-14T12:54:05;7;5;
47081;PMS5003;33066;49.296;14.470;2024-02-14T12:56:30;7;5;
47081;PMS5003;33066;49.296;14.470;2024-02-14T12:58:55;12;9;
47081;PMS5003;33066;49.296;14.470;2024-02-14T13:01:20;7;4;
47081;PMS5003;33066;49.296;14.470;2024-02-14T13:03:46;4;3;
47081;PMS5003;33066;49.296;14.470;2024-02-14T13:06:11;5;3;
47081;PMS5003;33066;49.296;14.470;2024-02-14T13:08:36;6;6;
47081;PMS5003;33066;49.296;14.470;2024-02-14T13:11:02;8;6;
47081;PMS5003;33066;49.296;14.470;2024-02-14T13:13:27;7;4;
47081;PMS5003;33066;49.296;14.470;2024-02-14T13:15:52;4;4;
47081;PMS5003;33066;49.296;14.470;2024-02-14T13:18:17;6;5;
47081;PMS5003;33066;49.296;14.470;2024-02-14T13:20:42;4;4;
47081;PMS5003;33066;49.296;14.470;2024-02-14T13:23:08;5;3;
47081;PMS5003;33066;49.296;14.470;2024-02-14T13:25:33;4;3;
47081;PMS5003;33066;49.296;14.470;2024-02-14T13:27:58;7;5;
47081;PMS5003;33066;49.296;14.470;2024-02-14T13:30:24;4;4;
47081;PMS5003;33066;49.296;14.470;2024-02-14T13:32:49;3;3;
47081;PMS5003;33066;49.296;14.470;2024-02-14T13:35:14;6;5;
47081;PMS5003;33066;49.296;14.470;2024-02-14T13:37:40;5;5;
47081;PMS5003;33066;49.296;14.470;2024-02-14T13:40:05;8;6;
47081;PMS5003;33066;49.296;14.470;2024-02-14T13:42:30;6;5;
47081;PMS5003;33066;49.296;14.470;2024-02-14T13:44:56;7;7;
47081;PMS5003;33066;49.296;14.470;2024-02-14T13:47:21;6;5;
47081;PMS5003;33066;49.296;14.470;2024-02-14T13:49:46;6;5;
47081;PMS5003;33066;49.296;14.470;2024-02-14T13:52:12;11;11;
47081;PMS5003;33066;49.296;14.470;2024-02-14T13:54:37;6;4;
47081;PMS5003;33066;49.296;14.470;2024-02-14T13:57:02;6;5;
47081;PMS5003;33066;49.296;14.470;2024-02-14T13:59:27;3;3;
47081;PMS5003;33066;49.296;14.470;2024-02-14T14:01:52;5;5;
47081;PMS5003;33066;49.296;14.470;2024-02-14T14:04:17;5;3;
47081;PMS5003;33066;49.296;14.470;2024-02-14T14:06:43;5;5;
47081;PMS5003;33066;49.296;14.470;2024-02-14T14:09:08;5;4;
47081;PMS5003;33066;49.296;14.470;2024-02-14T14:11:33;3;3;
47081;PMS5003;33066;49.296;14.470;2024-02-14T14:13:58;3;3;
47081;PMS5003;33066;49.296;14.470;2024-02-14T14:16:23;6;6;
47081;PMS5003;33066;49.296;14.470;2024-02-14T14:18:49;4;4;
47081;PMS5003;33066;49.296;14.470;2024-02-14T14:21:14;5;4;
47081;PMS5003;33066;49.296;14.470;2024-02-14T14:23:39;7;4;
47081;PMS5003;33066;49.296;14.470;2024-02-14T14:26:04;4;4;
47081;PMS5003;33066;49.296;14.470;2024-02-14T14:28:30;5;5;
47081;PMS5003;33066;49.296;14.470;2024-02-14T14:30:56;5;3;
47081;PMS5003;33066;49.296;14.470;2024-02-14T14:33:21;7;7;
47081;PMS5003;33066;49.296;14.470;2024-02-14T14:35:46;6;5;
47081;PMS5003;33066;49.296;14.470;2024-02-14T14:38:12;3;3;
47081;PMS5003;33066;49.296;14.470;2024-02-14T14:40:37;6;6;
47081;PMS5003;33066;49.296;14.470;2024-02-14T14:43:03;5;4;
47081;PMS5003;33066;49.296;14.470;2024-02-14T14:45:29;6;4;
47081;PMS5003;33066;49.296;14.470;2024-02-14T14:47:54;4;4;
47081;PMS5003;33066;49.296;14.470;2024-02-14T14:50:19;3;3;
47081;PMS5003;33066;49.296;14.470;2024-02-14T14:52:44;8;6;
47081;PMS5003;33066;49.296;14.470;2024-02-14T14:55:09;4;3;
47081;PMS5003;33066;49.296;14.470;2024-02-14T14:57:35;6;5;
47081;PMS5003;33066;49.296;14.470;2024-02-14T15:00:00;4;4;
47081;PMS5003;33066;49.296;14.470;2024-02-14T15:02:25;4;4;
47081;PMS5003;33066;49.296;14.470;2024-02-14T15:04:51;5;4;
47081;PMS5003;33066;49.296;14.470;2024-02-14T15:07:17;10;9;
47081;PMS5003;33066;49.296;14.470;2024-02-14T15:09:42;12;10;
47081;PMS5003;33066;49.296;14.470;2024-02-14T15:12:07;9;6;
47081;PMS5003;33066;49.296;14.470;2024-02-14T15:14:32;11;6;
47081;PMS5003;33066;49.296;14.470;2024-02-14T15:16:57;8;6;
47081;PMS5003;33066;49.296;14.470;2024-02-14T15:19:23;5;5;
47081;PMS5003;33066;49.296;14.470;2024-02-14T15:21:48;4;4;
47081;PMS5003;33066;49.296;14.470;2024-02-14T15:24:14;9;7;
47081;PMS5003;33066;49.296;14.470;2024-02-14T15:26:39;6;6;
47081;PMS5003;33066;49.296;14.470;2024-02-14T15:29:04;11;9;
47081;PMS5003;33066;49.296;14.470;2024-02-14T15:31:29;8;7;
47081;PMS5003;33066;49.296;14.470;2024-02-14T15:33:55;10;10;
47081;PMS5003;33066;49.296;14.470;2024-02-14T15:36:21;15;13;
47081;PMS5003;33066;49.296;14.470;2024-02-14T15:38:47;10;6;
47081;PMS5003;33066;49.296;14.470;2024-02-14T15:41:12;7;7;
47081;PMS5003;33066;49.296;14.470;2024-02-14T15:43:38;15;12;
47081;PMS5003;33066;49.296;14.470;2024-02-14T15:46:03;6;6;
47081;PMS5003;33066;49.296;14.470;2024-02-14T15:48:29;10;7;
47081;PMS5003;33066;49.296;14.470;2024-02-14T15:50:54;7;7;
47081;PMS5003;33066;49.296;14.470;2024-02-14T15:53:19;8;7;
47081;PMS5003;33066;49.296;14.470;2024-02-14T15:55:44;12;10;